sensor_id;sensor_type;location;lat;lon;timestamp;P1;durP1;ratioP1;P2;durP2;ratioP2
32106;SDS011;18622;51.998;10.440;2023-08-06T12:27:25;2.83;;;2.53;;
32106;SDS011;18622;51.998;10.440;2023-08-06T12:29:53;4.57;;;2.47;;
32106;SDS011;18622;51.998;10.440;2023-08-06T12:32:21;4.67;;;2.90;;
32106;SDS011;18622;51.998;10.440;2023-08-06T12:34:49;4.50;;;2.53;;
32106;SDS011;18622;51.998;10.440;2023-08-06T12:37:17;3.23;;;2.60;;
32106;SDS011;18622;51.998;10.440;2023-08-06T12:39:44;2.93;;;2.27;;
32106;SDS011;18622;51.998;10.440;2023-08-06T12:42:12;2.57;;;2.27;;
32106;SDS011;18622;51.998;10.440;2023-08-06T12:44:40;3.53;;;2.23;;
32106;SDS011;18622;51.998;10.440;2023-08-06T12:47:08;2.30;;;2.00;;
32106;SDS011;18622;51.998;10.440;2023-08-06T12:49:36;4.97;;;2.50;;
32106;SDS011;18622;51.998;10.440;2023-08-06T12:52:03;2.95;;;2.40;;
32106;SDS011;18622;51.998;10.440;2023-08-06T12:54:33;3.37;;;2.45;;
32106;SDS011;18622;51.998;10.440;2023-08-06T12:57:03;3.57;;;2.53;;
32106;SDS011;18622;51.998;10.440;2023-08-06T12:59:31;2.30;;;2.10;;
32106;SDS011;18622;51.998;10.440;2023-08-06T13:02:00;3.17;;;2.10;;
32106;SDS011;18622;51.998;10.440;2023-08-06T13:04:28;2.90;;;1.80;;
32106;SDS011;18622;51.998;10.440;2023-08-06T13:06:56;5.90;;;1.95;;
32106;SDS011;18622;51.998;10.440;2023-08-06T13:09:24;3.27;;;2.10;;
32106;SDS011;18622;51.998;10.440;2023-08-06T13:11:53;3.27;;;1.93;;
32106;SDS011;18622;51.998;10.440;2023-08-06T13:14:21;4.93;;;2.17;;
32106;SDS011;18622;51.998;10.440;2023-08-06T13:16:49;2.03;;;1.83;;
32106;SDS011;18622;51.998;10.440;2023-08-06T13:19:17;3.10;;;1.97;;
32106;SDS011;18622;51.998;10.440;2023-08-06T13:24:19;7.40;;;1.90;;
32106;SDS011;18622;51.998;10.440;2023-08-06T13:26:47;1.97;;;1.80;;
32106;SDS011;18622;51.998;10.440;2023-08-06T13:29:15;3.30;;;1.97;;
32106;SDS011;18622;51.998;10.440;2023-08-06T13:31:42;3.00;;;1.87;;
32106;SDS011;18622;51.998;10.440;2023-08-06T13:34:10;2.37;;;1.97;;
32106;SDS011;18622;51.998;10.440;2023-08-06T13:36:38;4.53;;;2.30;;
32106;SDS011;18622;51.998;10.440;2023-08-06T13:39:06;2.60;;;1.93;;
32106;SDS011;18622;51.998;10.440;2023-08-06T13:41:34;2.37;;;1.93;;
32106;SDS011;18622;51.998;10.440;2023-08-06T13:44:01;1.80;;;1.70;;
32106;SDS011;18622;51.998;10.440;2023-08-06T13:46:29;2.93;;;1.70;;
32106;SDS011;18622;51.998;10.440;2023-08-06T13:48:57;3.00;;;2.13;;
32106;SDS011;18622;51.998;10.440;2023-08-06T13:51:25;2.73;;;2.23;;
32106;SDS011;18622;51.998;10.440;2023-08-06T13:53:53;2.93;;;2.27;;
32106;SDS011;18622;51.998;10.440;2023-08-06T13:56:22;1.83;;;1.73;;
32106;SDS011;18622;51.998;10.440;2023-08-06T13:58:50;1.97;;;1.80;;
32106;SDS011;18622;51.998;10.440;2023-08-06T14:01:18;4.43;;;2.13;;
32106;SDS011;18622;51.998;10.440;2023-08-06T14:03:46;3.53;;;2.20;;
32106;SDS011;18622;51.998;10.440;2023-08-06T14:06:14;3.30;;;2.50;;
32106;SDS011;18622;51.998;10.440;2023-08-06T14:08:41;2.40;;;2.20;;
32106;SDS011;18622;51.998;10.440;2023-08-06T14:11:09;7.03;;;2.20;;
32106;SDS011;18622;51.998;10.440;2023-08-06T14:13:37;5.43;;;1.77;;
32106;SDS011;18622;51.998;10.440;2023-08-06T14:16:05;1.37;;;1.27;;
32106;SDS011;18622;51.998;10.440;2023-08-06T14:18:34;1.70;;;1.47;;
32106;SDS011;18622;51.998;10.440;2023-08-06T14:21:04;3.53;;;1.90;;
32106;SDS011;18622;51.998;10.440;2023-08-06T14:23:31;2.50;;;1.40;;
32106;SDS011;18622;51.998;10.440;2023-08-06T14:25:59;2.30;;;1.80;;
32106;SDS011;18622;51.998;10.440;2023-08-06T14:28:27;2.20;;;1.90;;
32106;SDS011;18622;51.998;10.440;2023-08-06T14:30:55;3.57;;;1.90;;
32106;SDS011;18622;51.998;10.440;2023-08-06T14:33:23;2.37;;;1.90;;
32106;SDS011;18622;51.998;10.440;2023-08-06T14:35:50;2.70;;;1.70;;
32106;SDS011;18622;51.998;10.440;2023-08-06T14:38:18;3.73;;;1.77;;
32106;SDS011;18622;51.998;10.440;2023-08-06T14:40:46;2.80;;;1.80;;
32106;SDS011;18622;51.998;10.440;2023-08-06T14:43:14;3.87;;;1.80;;
32106;SDS011;18622;51.998;10.440;2023-08-06T14:45:42;2.77;;;2.00;;
32106;SDS011;18622;51.998;10.440;2023-08-06T14:48:09;3.00;;;2.10;;
32106;SDS011;18622;51.998;10.440;2023-08-06T14:50:37;3.23;;;1.93;;
32106;SDS011;18622;51.998;10.440;2023-08-06T14:53:05;3.08;;;2.33;;
32106;SDS011;18622;51.998;10.440;2023-08-06T14:55:34;3.22;;;2.08;;
32106;SDS011;18622;51.998;10.440;2023-08-06T14:58:01;4.07;;;2.10;;
32106;SDS011;18622;51.998;10.440;2023-08-06T15:00:29;2.47;;;2.03;;
32106;SDS011;18622;51.998;10.440;2023-08-06T15:02:57;4.20;;;2.27;;
32106;SDS011;18622;51.998;10.440;2023-08-06T15:05:25;3.67;;;2.00;;
32106;SDS011;18622;51.998;10.440;2023-08-06T15:07:53;4.60;;;2.07;;
32106;SDS011;18622;51.998;10.440;2023-08-06T15:10:21;4.30;;;2.20;;
32106;SDS011;18622;51.998;10.440;2023-08-06T15:12:48;4.40;;;2.00;;
32106;SDS011;18622;51.998;10.440;2023-08-06T15:15:16;3.13;;;1.93;;
32106;SDS011;18622;51.998;10.440;2023-08-06T15:17:44;6.83;;;2.20;;
32106;SDS011;18622;51.998;10.440;2023-08-06T15:20:12;2.47;;;1.60;;
32106;SDS011;18622;51.998;10.440;2023-08-06T15:22:40;2.67;;;1.57;;
32106;SDS011;18622;51.998;10.440;2023-08-06T15:25:08;1.80;;;1.63;;
32106;SDS011;18622;51.998;10.440;2023-08-06T15:27:35;3.37;;;1.90;;
32106;SDS011;18622;51.998;10.440;2023-08-06T15:30:03;3.37;;;2.10;;
32106;SDS011;18622;51.998;10.440;2023-08-06T15:32:31;2.70;;;2.00;;
32106;SDS011;18622;51.998;10.440;2023-08-06T15:34:59;2.20;;;1.60;;
32106;SDS011;18622;51.998;10.440;2023-08-06T15:37:27;2.23;;;1.90;;
32106;SDS011;18622;51.998;10.440;2023-08-06T15:39:55;3.23;;;2.33;;
32106;SDS011;18622;51.998;10.440;2023-08-06T15:42:23;2.93;;;2.10;;
32106;SDS011;18622;51.998;10.440;2023-08-06T15:44:51;3.73;;;1.90;;
32106;SDS011;18622;51.998;10.440;2023-08-06T15:47:19;3.67;;;2.90;;
32106;SDS011;18622;51.998;10.440;2023-08-06T15:49:47;2.90;;;1.80;;
32106;SDS011;18622;51.998;10.440;2023-08-06T15:52:14;2.53;;;1.57;;
32106;SDS011;18622;51.998;10.440;2023-08-06T15:54:43;1.95;;;1.70;;
32106;SDS011;18622;51.998;10.440;2023-08-06T15:57:11;3.20;;;1.90;;
32106;SDS011;18622;51.998;10.440;2023-08-06T15:59:38;3.40;;;1.70;;
32106;SDS011;18622;51.998;10.440;2023-08-06T16:02:06;2.63;;;1.47;;
32106;SDS011;18622;51.998;10.440;2023-08-06T16:04:35;4.50;;;1.70;;
32106;SDS011;18622;51.998;10.440;2023-08-06T16:07:03;2.93;;;2.00;;
32106;SDS011;18622;51.998;10.440;2023-08-06T16:09:31;2.10;;;1.53;;
32106;SDS011;18622;51.998;10.440;2023-08-06T16:11:59;1.53;;;1.43;;
32106;SDS011;18622;51.998;10.440;2023-08-06T16:14:26;2.00;;;1.50;;
32106;SDS011;18622;51.998;10.440;2023-08-06T16:16:54;1.93;;;1.53;;
32106;SDS011;18622;51.998;10.440;2023-08-06T16:19:22;3.87;;;1.50;;
32106;SDS011;18622;51.998;10.440;2023-08-06T16:21:50;1.77;;;1.40;;
32106;SDS011;18622;51.998;10.440;2023-08-06T16:24:18;1.97;;;1.17;;
32106;SDS011;18622;51.998;10.440;2023-08-06T16:26:46;1.50;;;1.40;;
32106;SDS011;18622;51.998;10.440;2023-08-06T16:29:14;1.47;;;1.30;;
32106;SDS011;18622;51.998;10.440;2023-08-06T16:31:41;2.70;;;1.40;;
32106;SDS011;18622;51.998;10.440;2023-08-06T16:34:09;2.33;;;1.60;;
32106;SDS011;18622;51.998;10.440;2023-08-06T16:36:37;1.80;;;1.23;;
32106;SDS011;18622;51.998;10.440;2023-08-06T16:39:05;1.77;;;1.20;;
32106;SDS011;18622;51.998;10.440;2023-08-06T16:41:32;1.67;;;1.33;;
32106;SDS011;18622;51.998;10.440;2023-08-06T16:44:00;3.17;;;1.30;;
32106;SDS011;18622;51.998;10.440;2023-08-06T16:48:57;3.37;;;1.25;;
32106;SDS011;18622;51.998;10.440;2023-08-06T16:51:25;3.85;;;1.25;;
32106;SDS011;18622;51.998;10.440;2023-08-06T16:53:52;5.93;;;1.40;;
32106;SDS011;18622;51.998;10.440;2023-08-06T16:56:20;13.60;;;3.17;;
32106;SDS011;18622;51.998;10.440;2023-08-06T16:58:48;55.70;;;5.60;;
32106;SDS011;18622;51.998;10.440;2023-08-06T17:01:16;11.90;;;4.23;;
32106;SDS011;18622;51.998;10.440;2023-08-06T17:03:44;35.17;;;5.13;;
32106;SDS011;18622;51.998;10.440;2023-08-06T17:06:11;8.53;;;3.40;;
32106;SDS011;18622;51.998;10.440;2023-08-06T17:08:41;4.35;;;2.65;;
32106;SDS011;18622;51.998;10.440;2023-08-06T17:11:09;8.10;;;3.67;;
32106;SDS011;18622;51.998;10.440;2023-08-06T17:13:37;7.80;;;4.03;;
32106;SDS011;18622;51.998;10.440;2023-08-06T17:16:04;9.37;;;4.27;;
32106;SDS011;18622;51.998;10.440;2023-08-06T17:18:32;6.70;;;3.77;;
32106;SDS011;18622;51.998;10.440;2023-08-06T17:21:00;5.77;;;3.47;;
32106;SDS011;18622;51.998;10.440;2023-08-06T17:23:28;7.00;;;3.10;;
32106;SDS011;18622;51.998;10.440;2023-08-06T17:25:56;5.90;;;3.20;;
32106;SDS011;18622;51.998;10.440;2023-08-06T17:28:23;3.90;;;3.07;;
32106;SDS011;18622;51.998;10.440;2023-08-06T17:30:51;4.70;;;2.03;;
32106;SDS011;18622;51.998;10.440;2023-08-06T17:33:19;6.87;;;2.00;;
32106;SDS011;18622;51.998;10.440;2023-08-06T17:35:47;3.10;;;1.80;;
32106;SDS011;18622;51.998;10.440;2023-08-06T17:38:15;2.10;;;1.50;;
32106;SDS011;18622;51.998;10.440;2023-08-06T17:40:43;2.53;;;1.57;;
32106;SDS011;18622;51.998;10.440;2023-08-06T17:43:11;3.40;;;1.70;;
32106;SDS011;18622;51.998;10.440;2023-08-06T17:45:38;3.87;;;1.73;;
32106;SDS011;18622;51.998;10.440;2023-08-06T17:48:06;2.00;;;1.80;;
32106;SDS011;18622;51.998;10.440;2023-08-06T17:50:34;6.80;;;2.40;;
32106;SDS011;18622;51.998;10.440;2023-08-06T17:53:02;14.63;;;3.23;;
32106;SDS011;18622;51.998;10.440;2023-08-06T17:55:30;4.37;;;2.50;;
32106;SDS011;18622;51.998;10.440;2023-08-06T17:57:57;5.93;;;3.37;;
32106;SDS011;18622;51.998;10.440;2023-08-06T18:00:25;6.80;;;2.77;;
32106;SDS011;18622;51.998;10.440;2023-08-06T18:02:53;8.23;;;3.50;;
32106;SDS011;18622;51.998;10.440;2023-08-06T18:05:21;11.33;;;3.20;;
32106;SDS011;18622;51.998;10.440;2023-08-06T18:07:49;3.53;;;2.70;;
32106;SDS011;18622;51.998;10.440;2023-08-06T18:10:17;8.17;;;2.57;;
32106;SDS011;18622;51.998;10.440;2023-08-06T18:12:44;4.50;;;2.80;;
32106;SDS011;18622;51.998;10.440;2023-08-06T18:15:12;3.30;;;2.30;;
32106;SDS011;18622;51.998;10.440;2023-08-06T18:17:40;3.77;;;2.63;;
32106;SDS011;18622;51.998;10.440;2023-08-06T18:20:08;4.20;;;2.63;;
32106;SDS011;18622;51.998;10.440;2023-08-06T18:22:36;3.93;;;2.50;;
32106;SDS011;18622;51.998;10.440;2023-08-06T18:25:07;3.33;;;2.30;;
32106;SDS011;18622;51.998;10.440;2023-08-06T18:27:35;2.42;;;2.15;;
32106;SDS011;18622;51.998;10.440;2023-08-06T18:30:03;4.00;;;2.40;;
32106;SDS011;18622;51.998;10.440;2023-08-06T18:32:31;3.67;;;2.80;;
32106;SDS011;18622;51.998;10.440;2023-08-06T18:34:59;6.60;;;2.97;;
32106;SDS011;18622;51.998;10.440;2023-08-06T18:37:26;3.57;;;2.53;;
32106;SDS011;18622;51.998;10.440;2023-08-06T18:39:54;5.77;;;2.23;;
32106;SDS011;18622;51.998;10.440;2023-08-06T18:42:24;10.80;;;3.05;;
32106;SDS011;18622;51.998;10.440;2023-08-06T18:44:52;7.63;;;3.80;;
32106;SDS011;18622;51.998;10.440;2023-08-06T18:47:19;8.33;;;3.90;;
32106;SDS011;18622;51.998;10.440;2023-08-06T18:49:47;6.73;;;4.40;;
32106;SDS011;18622;51.998;10.440;2023-08-06T18:52:15;9.57;;;6.13;;
32106;SDS011;18622;51.998;10.440;2023-08-06T18:54:43;6.47;;;3.33;;
32106;SDS011;18622;51.998;10.440;2023-08-06T18:57:10;7.97;;;4.20;;
32106;SDS011;18622;51.998;10.440;2023-08-06T18:59:38;5.73;;;3.60;;
32106;SDS011;18622;51.998;10.440;2023-08-06T19:02:06;7.27;;;3.60;;
32106;SDS011;18622;51.998;10.440;2023-08-06T19:04:34;6.07;;;4.03;;
32106;SDS011;18622;51.998;10.440;2023-08-06T19:07:02;11.93;;;4.70;;
32106;SDS011;18622;51.998;10.440;2023-08-06T19:09:30;4.40;;;3.60;;
32106;SDS011;18622;51.998;10.440;2023-08-06T19:11:58;7.47;;;3.80;;
32106;SDS011;18622;51.998;10.440;2023-08-06T19:14:26;5.63;;;3.80;;
32106;SDS011;18622;51.998;10.440;2023-08-06T19:16:54;6.23;;;3.83;;
32106;SDS011;18622;51.998;10.440;2023-08-06T19:19:23;5.28;;;4.17;;
32106;SDS011;18622;51.998;10.440;2023-08-06T19:21:51;11.17;;;4.90;;
32106;SDS011;18622;51.998;10.440;2023-08-06T19:24:19;8.17;;;4.63;;
32106;SDS011;18622;51.998;10.440;2023-08-06T19:26:46;7.97;;;4.67;;
32106;SDS011;18622;51.998;10.440;2023-08-06T19:29:14;7.17;;;4.33;;
32106;SDS011;18622;51.998;10.440;2023-08-06T19:31:42;6.47;;;4.20;;
32106;SDS011;18622;51.998;10.440;2023-08-06T19:34:10;7.80;;;4.30;;
32106;SDS011;18622;51.998;10.440;2023-08-06T19:36:38;7.97;;;4.77;;
32106;SDS011;18622;51.998;10.440;2023-08-06T19:39:06;10.57;;;4.33;;
32106;SDS011;18622;51.998;10.440;2023-08-06T19:41:34;7.90;;;4.43;;
32106;SDS011;18622;51.998;10.440;2023-08-06T19:44:01;9.57;;;5.30;;
32106;SDS011;18622;51.998;10.440;2023-08-06T19:46:29;10.27;;;4.73;;
32106;SDS011;18622;51.998;10.440;2023-08-06T19:48:57;7.60;;;4.60;;
32106;SDS011;18622;51.998;10.440;2023-08-06T19:51:25;7.63;;;4.60;;
32106;SDS011;18622;51.998;10.440;2023-08-06T19:53:54;7.40;;;4.60;;
32106;SDS011;18622;51.998;10.440;2023-08-06T19:56:22;9.67;;;5.23;;
32106;SDS011;18622;51.998;10.440;2023-08-06T19:58:50;7.80;;;3.80;;
32106;SDS011;18622;51.998;10.440;2023-08-06T20:01:18;5.57;;;4.73;;
32106;SDS011;18622;51.998;10.440;2023-08-06T20:03:46;7.60;;;4.07;;
32106;SDS011;18622;51.998;10.440;2023-08-06T20:06:14;7.50;;;3.97;;
32106;SDS011;18622;51.998;10.440;2023-08-06T20:08:42;6.40;;;3.60;;
32106;SDS011;18622;51.998;10.440;2023-08-06T20:11:10;5.73;;;3.40;;
32106;SDS011;18622;51.998;10.440;2023-08-06T20:13:37;5.70;;;3.73;;
32106;SDS011;18622;51.998;10.440;2023-08-06T20:16:05;8.17;;;4.50;;
32106;SDS011;18622;51.998;10.440;2023-08-06T20:18:34;6.83;;;3.60;;
32106;SDS011;18622;51.998;10.440;2023-08-06T20:21:02;9.07;;;4.30;;
32106;SDS011;18622;51.998;10.440;2023-08-06T20:23:31;7.40;;;3.98;;
32106;SDS011;18622;51.998;10.440;2023-08-06T20:25:59;9.08;;;4.00;;
32106;SDS011;18622;51.998;10.440;2023-08-06T20:28:27;4.93;;;3.97;;
32106;SDS011;18622;51.998;10.440;2023-08-06T20:30:54;6.63;;;3.93;;
32106;SDS011;18622;51.998;10.440;2023-08-06T20:33:22;8.37;;;4.00;;
32106;SDS011;18622;51.998;10.440;2023-08-06T20:35:50;6.90;;;3.93;;
32106;SDS011;18622;51.998;10.440;2023-08-06T20:38:18;5.83;;;3.63;;
32106;SDS011;18622;51.998;10.440;2023-08-06T20:40:47;8.25;;;3.45;;
32106;SDS011;18622;51.998;10.440;2023-08-06T20:43:16;6.40;;;3.62;;
32106;SDS011;18622;51.998;10.440;2023-08-06T20:45:51;5.25;;;3.20;;
32106;SDS011;18622;51.998;10.440;2023-08-06T20:48:21;5.57;;;2.93;;
32106;SDS011;18622;51.998;10.440;2023-08-06T20:50:49;4.33;;;3.33;;
32106;SDS011;18622;51.998;10.440;2023-08-06T20:53:18;5.28;;;3.00;;
32106;SDS011;18622;51.998;10.440;2023-08-06T20:55:56;5.97;;;3.33;;
32106;SDS011;18622;51.998;10.440;2023-08-06T21:00:54;5.57;;;3.27;;
32106;SDS011;18622;51.998;10.440;2023-08-06T21:03:23;8.05;;;3.50;;
32106;SDS011;18622;51.998;10.440;2023-08-06T21:06:01;9.88;;;3.27;;
32106;SDS011;18622;51.998;10.440;2023-08-06T21:08:32;6.30;;;2.80;;
32106;SDS011;18622;51.998;10.440;2023-08-06T21:11:02;5.90;;;2.87;;
32106;SDS011;18622;51.998;10.440;2023-08-06T21:13:30;3.83;;;3.02;;
32106;SDS011;18622;51.998;10.440;2023-08-06T21:15:58;5.97;;;2.83;;
32106;SDS011;18622;51.998;10.440;2023-08-06T21:18:28;3.80;;;2.67;;
32106;SDS011;18622;51.998;10.440;2023-08-06T21:20:59;8.30;;;3.40;;
32106;SDS011;18622;51.998;10.440;2023-08-06T21:23:28;3.98;;;2.80;;
32106;SDS011;18622;51.998;10.440;2023-08-06T21:25:59;8.70;;;2.90;;
32106;SDS011;18622;51.998;10.440;2023-08-06T21:28:29;4.78;;;2.70;;
